sensor_id;sensor_type;location;lat;lon;timestamp;pressure;altitude;pressure_sealevel;temperature;humidity
46756;BME280;32506;52.826;-1.192;2024-03-02T00:01:54;98492.06;;;3.13;65.11
46756;BME280;32506;52.826;-1.192;2024-03-02T00:04:19;98486.78;;;3.13;65.40
46756;BME280;32506;52.826;-1.192;2024-03-02T00:06:45;98489.44;;;3.13;65.16
46756;BME280;32506;52.826;-1.192;2024-03-02T00:09:11;98487.81;;;3.12;65.57
46756;BME280;32506;52.826;-1.192;2024-03-02T00:11:37;98498.13;;;3.14;65.26
46756;BME280;32506;52.826;-1.192;2024-03-02T00:14:04;98493.88;;;3.13;65.72
46756;BME280;32506;52.826;-1.192;2024-03-02T00:16:32;98490.44;;;3.12;65.45
46756;BME280;32506;52.826;-1.192;2024-03-02T00:19:02;98499.16;;;3.13;65.64
46756;BME280;32506;52.826;-1.192;2024-03-02T00:21:29;98493.88;;;3.13;65.41
46756;BME280;32506;52.826;-1.192;2024-03-02T00:23:56;98491.03;;;3.14;65.78
46756;BME280;32506;52.826;-1.192;2024-03-02T00:26:21;98487.59;;;3.14;65.81
46756;BME280;32506;52.826;-1.192;2024-03-02T00:28:47;98486.78;;;3.13;65.85
46756;BME280;32506;52.826;-1.192;2024-03-02T00:31:19;98492.88;;;3.14;65.72
46756;BME280;32506;52.826;-1.192;2024-03-02T00:33:47;98493.69;;;3.14;65.90
46756;BME280;32506;52.826;-1.192;2024-03-02T00:36:25;98494.25;;;3.16;66.20
46756;BME280;32506;52.826;-1.192;2024-03-02T00:38:53;98488.19;;;3.16;66.49
46756;BME280;32506;52.826;-1.192;2024-03-02T00:41:30;98494.03;;;3.18;66.64
46756;BME280;32506;52.826;-1.192;2024-03-02T00:44:00;98491.41;;;3.18;66.52
46756;BME280;32506;52.826;-1.192;2024-03-02T00:46:32;98495.66;;;3.19;66.35
46756;BME280;32506;52.826;-1.192;2024-03-02T00:49:06;98491.19;;;3.19;67.08
46756;BME280;32506;52.826;-1.192;2024-03-02T00:51:37;98492.00;;;3.20;66.90
46756;BME280;32506;52.826;-1.192;2024-03-02T00:54:05;98487.53;;;3.21;67.15
46756;BME280;32506;52.826;-1.192;2024-03-02T00:56:31;98487.31;;;3.22;67.09
46756;BME280;32506;52.826;-1.192;2024-03-02T00:58:57;98482.03;;;3.22;67.13
46756;BME280;32506;52.826;-1.192;2024-03-02T01:01:23;98488.94;;;3.23;67.20
46756;BME280;32506;52.826;-1.192;2024-03-02T01:03:48;98491.34;;;3.25;67.38
46756;BME280;32506;52.826;-1.192;2024-03-02T01:06:15;98490.34;;;3.26;66.94
46756;BME280;32506;52.826;-1.192;2024-03-02T01:08:41;98480.56;;;3.26;67.15
46756;BME280;32506;52.826;-1.192;2024-03-02T01:11:06;98471.63;;;3.27;67.06
46756;BME280;32506;52.826;-1.192;2024-03-02T01:13:32;98474.06;;;3.29;67.14
46756;BME280;32506;52.826;-1.192;2024-03-02T01:15:57;98475.66;;;3.30;67.37
46756;BME280;32506;52.826;-1.192;2024-03-02T01:18:23;98482.56;;;3.31;67.58
46756;BME280;32506;52.826;-1.192;2024-03-02T01:20:49;98482.13;;;3.34;67.57
46756;BME280;32506;52.826;-1.192;2024-03-02T01:23:19;98474.22;;;3.34;67.58
46756;BME280;32506;52.826;-1.192;2024-03-02T01:25:46;98479.50;;;3.34;67.44
46756;BME280;32506;52.826;-1.192;2024-03-02T01:28:12;98478.47;;;3.35;67.35
46756;BME280;32506;52.826;-1.192;2024-03-02T01:30:38;98472.19;;;3.36;67.23
46756;BME280;32506;52.826;-1.192;2024-03-02T01:33:03;98472.75;;;3.38;67.77
46756;BME280;32506;52.826;-1.192;2024-03-02T01:35:31;98478.03;;;3.38;67.56
46756;BME280;32506;52.826;-1.192;2024-03-02T01:37:56;98477.81;;;3.40;67.66
46756;BME280;32506;52.826;-1.192;2024-03-02T01:40:22;98477.81;;;3.40;67.75
46756;BME280;32506;52.826;-1.192;2024-03-02T01:42:51;98479.44;;;3.41;67.61
46756;BME280;32506;52.826;-1.192;2024-03-02T01:45:17;98476.78;;;3.41;67.44
46756;BME280;32506;52.826;-1.192;2024-03-02T01:47:42;98478.41;;;3.42;67.60
46756;BME280;32506;52.826;-1.192;2024-03-02T01:50:08;98473.94;;;3.42;68.09
46756;BME280;32506;52.826;-1.192;2024-03-02T01:52:36;98469.47;;;3.43;67.95
46756;BME280;32506;52.826;-1.192;2024-03-02T01:55:02;98467.63;;;3.43;67.89
46756;BME280;32506;52.826;-1.192;2024-03-02T01:57:29;98471.06;;;3.44;67.72
46756;BME280;32506;52.826;-1.192;2024-03-02T01:59:55;98467.41;;;3.45;67.50
46756;BME280;32506;52.826;-1.192;2024-03-02T02:02:21;98460.31;;;3.45;67.97
46756;BME280;32506;52.826;-1.192;2024-03-02T02:04:46;98462.13;;;3.45;67.67
46756;BME280;32506;52.826;-1.192;2024-03-02T02:07:12;98468.81;;;3.47;67.65
46756;BME280;32506;52.826;-1.192;2024-03-02T02:09:42;98471.66;;;3.46;67.90
46756;BME280;32506;52.826;-1.192;2024-03-02T02:12:08;98464.53;;;3.46;68.31
46756;BME280;32506;52.826;-1.192;2024-03-02T02:14:34;98461.91;;;3.46;67.89
46756;BME280;32506;52.826;-1.192;2024-03-02T02:17:00;98463.53;;;3.47;67.89
46756;BME280;32506;52.826;-1.192;2024-03-02T02:19:25;98469.81;;;3.46;67.64
46756;BME280;32506;52.826;-1.192;2024-03-02T02:21:50;98470.66;;;3.47;67.62
46756;BME280;32506;52.826;-1.192;2024-03-02T02:24:16;98469.81;;;3.46;67.64
46756;BME280;32506;52.826;-1.192;2024-03-02T02:26:41;98460.88;;;3.47;67.76
46756;BME280;32506;52.826;-1.192;2024-03-02T02:29:07;98454.59;;;3.48;68.08
46756;BME280;32506;52.826;-1.192;2024-03-02T02:31:39;98446.66;;;3.48;67.92
46756;BME280;32506;52.826;-1.192;2024-03-02T02:34:05;98432.66;;;3.48;67.96
46756;BME280;32506;52.826;-1.192;2024-03-02T02:36:32;98432.66;;;3.48;68.22
46756;BME280;32506;52.826;-1.192;2024-03-02T02:38:58;98434.25;;;3.49;67.80
46756;BME280;32506;52.826;-1.192;2024-03-02T02:41:25;98427.94;;;3.50;68.14
46756;BME280;32506;52.826;-1.192;2024-03-02T02:43:50;98428.75;;;3.50;68.08
46756;BME280;32506;52.826;-1.192;2024-03-02T02:46:16;98427.72;;;3.51;68.16
46756;BME280;32506;52.826;-1.192;2024-03-02T02:48:41;98431.38;;;3.50;68.09
46756;BME280;32506;52.826;-1.192;2024-03-02T02:51:07;98429.34;;;3.52;68.30
46756;BME280;32506;52.826;-1.192;2024-03-02T02:53:32;98421.41;;;3.52;68.20
46756;BME280;32506;52.826;-1.192;2024-03-02T02:55:57;98421.41;;;3.52;67.91
46756;BME280;32506;52.826;-1.192;2024-03-02T02:58:23;98413.28;;;3.54;68.43
46756;BME280;32506;52.826;-1.192;2024-03-02T03:00:48;98409.84;;;3.53;68.28
46756;BME280;32506;52.826;-1.192;2024-03-02T03:03:14;98412.25;;;3.55;68.79
46756;BME280;32506;52.826;-1.192;2024-03-02T03:05:39;98415.69;;;3.56;68.42
46756;BME280;32506;52.826;-1.192;2024-03-02T03:08:05;98410.41;;;3.56;68.53
46756;BME280;32506;52.826;-1.192;2024-03-02T03:10:30;98410.41;;;3.56;68.54
46756;BME280;32506;52.826;-1.192;2024-03-02T03:12:56;98403.31;;;3.56;68.49
46756;BME280;32506;52.826;-1.192;2024-03-02T03:15:21;98409.38;;;3.57;68.36
46756;BME280;32506;52.826;-1.192;2024-03-02T03:17:47;98402.47;;;3.56;68.32
46756;BME280;32506;52.826;-1.192;2024-03-02T03:20:13;98405.94;;;3.56;68.14
46756;BME280;32506;52.826;-1.192;2024-03-02T03:22:39;98409.84;;;3.53;68.46
46756;BME280;32506;52.826;-1.192;2024-03-02T03:25:05;98407.78;;;3.56;68.40
46756;BME280;32506;52.826;-1.192;2024-03-02T03:27:30;98410.63;;;3.54;67.86
46756;BME280;32506;52.826;-1.192;2024-03-02T03:29:56;98408.00;;;3.54;68.05
46756;BME280;32506;52.826;-1.192;2024-03-02T03:32:22;98409.84;;;3.53;67.92
46756;BME280;32506;52.826;-1.192;2024-03-02T03:34:47;98400.06;;;3.54;68.15
46756;BME280;32506;52.826;-1.192;2024-03-02T03:37:14;98411.66;;;3.53;68.07
46756;BME280;32506;52.826;-1.192;2024-03-02T03:39:39;98406.38;;;3.53;68.27
46756;BME280;32506;52.826;-1.192;2024-03-02T03:42:05;98400.28;;;3.52;68.37
46756;BME280;32506;52.826;-1.192;2024-03-02T03:44:30;98402.94;;;3.52;68.11
46756;BME280;32506;52.826;-1.192;2024-03-02T03:46:55;98400.28;;;3.52;68.11
46756;BME280;32506;52.826;-1.192;2024-03-02T03:49:21;98403.72;;;3.53;68.34
46756;BME280;32506;52.826;-1.192;2024-03-02T03:51:46;98397.66;;;3.52;68.04
46756;BME280;32506;52.826;-1.192;2024-03-02T03:54:12;98397.88;;;3.51;68.14
46756;BME280;32506;52.826;-1.192;2024-03-02T03:56:37;98392.59;;;3.51;68.09
46756;BME280;32506;52.826;-1.192;2024-03-02T03:59:03;98388.94;;;3.52;68.11
46756;BME280;32506;52.826;-1.192;2024-03-02T04:01:30;98391.75;;;3.50;67.92
46756;BME280;32506;52.826;-1.192;2024-03-02T04:03:56;98392.81;;;3.49;68.01
46756;BME280;32506;52.826;-1.192;2024-03-02T04:06:22;98391.19;;;3.48;67.95
46756;BME280;32506;52.826;-1.192;2024-03-02T04:08:48;98384.28;;;3.47;67.85
46756;BME280;32506;52.826;-1.192;2024-03-02T04:11:13;98380.25;;;3.45;67.37
46756;BME280;32506;52.826;-1.192;2024-03-02T04:13:39;98385.53;;;3.45;67.26
46756;BME280;32506;52.826;-1.192;2024-03-02T04:16:04;98388.41;;;3.43;67.23
46756;BME280;32506;52.826;-1.192;2024-03-02T04:18:30;98392.88;;;3.43;67.63
46756;BME280;32506;52.826;-1.192;2024-03-02T04:20:57;98388.84;;;3.40;67.28
46756;BME280;32506;52.826;-1.192;2024-03-02T04:23:24;98398.59;;;3.40;67.26
46756;BME280;32506;52.826;-1.192;2024-03-02T04:25:50;98399.63;;;3.39;67.54
46756;BME280;32506;52.826;-1.192;2024-03-02T04:28:16;98402.47;;;3.37;67.31
46756;BME280;32506;52.826;-1.192;2024-03-02T04:30:41;98397.19;;;3.37;67.41
46756;BME280;32506;52.826;-1.192;2024-03-02T04:33:07;98400.88;;;3.36;67.42
46756;BME280;32506;52.826;-1.192;2024-03-02T04:35:35;98397.41;;;3.35;67.50
46756;BME280;32506;52.826;-1.192;2024-03-02T04:38:01;98397.41;;;3.35;67.32
46756;BME280;32506;52.826;-1.192;2024-03-02T04:40:26;98395.81;;;3.34;67.74
46756;BME280;32506;52.826;-1.192;2024-03-02T04:42:52;98395.00;;;3.34;68.11
46756;BME280;32506;52.826;-1.192;2024-03-02T04:45:17;98396.63;;;3.35;67.74
46756;BME280;32506;52.826;-1.192;2024-03-02T04:47:42;98391.56;;;3.33;67.57
46756;BME280;32506;52.826;-1.192;2024-03-02T04:50:08;98389.94;;;3.32;67.77
46756;BME280;32506;52.826;-1.192;2024-03-02T04:52:33;98400.50;;;3.32;67.88
46756;BME280;32506;52.826;-1.192;2024-03-02T04:54:59;98399.69;;;3.32;67.86
46756;BME280;32506;52.826;-1.192;2024-03-02T05:01:17;98399.69;;;3.32;68.56
46756;BME280;32506;52.826;-1.192;2024-03-02T05:03:42;98404.16;;;3.31;68.17
46756;BME280;32506;52.826;-1.192;2024-03-02T05:06:08;98401.75;;;3.30;68.13
46756;BME280;32506;52.826;-1.192;2024-03-02T05:08:34;98404.16;;;3.31;68.20
46756;BME280;32506;52.826;-1.192;2024-03-02T05:10:59;98398.09;;;3.31;68.09
46756;BME280;32506;52.826;-1.192;2024-03-02T05:13:44;98398.88;;;3.31;68.13
46756;BME280;32506;52.826;-1.192;2024-03-02T05:16:10;98404.16;;;3.31;68.29
46756;BME280;32506;52.826;-1.192;2024-03-02T05:18:37;98402.34;;;3.32;68.90
46756;BME280;32506;52.826;-1.192;2024-03-02T05:21:03;98401.28;;;3.33;68.44
46756;BME280;32506;52.826;-1.192;2024-03-02T05:23:28;98401.28;;;3.33;68.53
46756;BME280;32506;52.826;-1.192;2024-03-02T05:25:54;98402.91;;;3.34;68.71
46756;BME280;32506;52.826;-1.192;2024-03-02T05:28:19;98402.69;;;3.35;69.14
46756;BME280;32506;52.826;-1.192;2024-03-02T05:30:45;98402.69;;;3.35;69.03
46756;BME280;32506;52.826;-1.192;2024-03-02T05:33:10;98410.63;;;3.35;69.22
46756;BME280;32506;52.826;-1.192;2024-03-02T05:35:35;98405.09;;;3.37;69.25
46756;BME280;32506;52.826;-1.192;2024-03-02T05:38:01;98402.47;;;3.37;69.03
46756;BME280;32506;52.826;-1.192;2024-03-02T05:40:26;98410.19;;;3.39;69.29
46756;BME280;32506;52.826;-1.192;2024-03-02T05:42:52;98408.34;;;3.39;69.05
46756;BME280;32506;52.826;-1.192;2024-03-02T05:45:17;98405.72;;;3.39;69.24
46756;BME280;32506;52.826;-1.192;2024-03-02T05:47:43;98401.22;;;3.40;69.37
46756;BME280;32506;52.826;-1.192;2024-03-02T05:50:09;98400.22;;;3.41;69.44
46756;BME280;32506;52.826;-1.192;2024-03-02T05:52:34;98408.13;;;3.41;68.99
46756;BME280;32506;52.826;-1.192;2024-03-02T05:55:00;98400.00;;;3.42;68.94
46756;BME280;32506;52.826;-1.192;2024-03-02T05:57:25;98404.25;;;3.43;69.07
46756;BME280;32506;52.826;-1.192;2024-03-02T06:00:09;98406.88;;;3.43;69.36
46756;BME280;32506;52.826;-1.192;2024-03-02T06:02:34;98414.59;;;3.45;69.40
46756;BME280;32506;52.826;-1.192;2024-03-02T06:05:03;98410.94;;;3.46;69.51
46756;BME280;32506;52.826;-1.192;2024-03-02T06:07:29;98396.09;;;3.45;69.73
46756;BME280;32506;52.826;-1.192;2024-03-02T06:09:55;98396.69;;;3.47;69.49
46756;BME280;32506;52.826;-1.192;2024-03-02T06:12:20;98398.31;;;3.48;69.90
46756;BME280;32506;52.826;-1.192;2024-03-02T06:14:46;98399.91;;;3.49;69.73
46756;BME280;32506;52.826;-1.192;2024-03-02T06:17:11;98391.19;;;3.48;70.13
46756;BME280;32506;52.826;-1.192;2024-03-02T06:19:37;98400.75;;;3.49;69.57
46756;BME280;32506;52.826;-1.192;2024-03-02T06:22:02;98400.50;;;3.51;69.82
46756;BME280;32506;52.826;-1.192;2024-03-02T06:24:29;98398.66;;;3.51;70.03
46756;BME280;32506;52.826;-1.192;2024-03-02T06:26:54;98394.22;;;3.52;70.08
46756;BME280;32506;52.826;-1.192;2024-03-02T06:29:20;98392.16;;;3.54;70.31
46756;BME280;32506;52.826;-1.192;2024-03-02T06:31:45;98392.38;;;3.52;69.97
46756;BME280;32506;52.826;-1.192;2024-03-02T06:34:10;98382.41;;;3.55;69.55
46756;BME280;32506;52.826;-1.192;2024-03-02T06:36:36;98393.75;;;3.55;69.94
46756;BME280;32506;52.826;-1.192;2024-03-02T06:39:02;98388.25;;;3.57;69.81
46756;BME280;32506;52.826;-1.192;2024-03-02T06:41:27;98383.78;;;3.57;70.26
46756;BME280;32506;52.826;-1.192;2024-03-02T06:43:53;98380.09;;;3.58;70.24
46756;BME280;32506;52.826;-1.192;2024-03-02T06:46:25;98376.44;;;3.59;70.23
46756;BME280;32506;52.826;-1.192;2024-03-02T06:48:50;98379.88;;;3.60;69.89
46756;BME280;32506;52.826;-1.192;2024-03-02T06:51:16;98385.16;;;3.60;69.92
46756;BME280;32506;52.826;-1.192;2024-03-02T06:53:41;98387.59;;;3.61;70.31
46756;BME280;32506;52.826;-1.192;2024-03-02T06:56:07;98383.13;;;3.62;70.64
46756;BME280;32506;52.826;-1.192;2024-03-02T06:58:33;98387.38;;;3.63;70.16
46756;BME280;32506;52.826;-1.192;2024-03-02T07:00:59;98388.97;;;3.64;70.36
46756;BME280;32506;52.826;-1.192;2024-03-02T07:03:25;98381.88;;;3.64;70.12
46756;BME280;32506;52.826;-1.192;2024-03-02T07:05:51;98386.94;;;3.66;70.11
46756;BME280;32506;52.826;-1.192;2024-03-02T07:08:17;98382.44;;;3.66;69.90
46756;BME280;32506;52.826;-1.192;2024-03-02T07:10:42;98375.34;;;3.67;69.99
46756;BME280;32506;52.826;-1.192;2024-03-02T07:13:08;98383.84;;;3.69;70.02
46756;BME280;32506;52.826;-1.192;2024-03-02T07:15:33;98375.69;;;3.70;69.94
46756;BME280;32506;52.826;-1.192;2024-03-02T07:18:17;98365.13;;;3.70;70.32
46756;BME280;32506;52.826;-1.192;2024-03-02T07:20:43;98375.25;;;3.74;70.14
46756;BME280;32506;52.826;-1.192;2024-03-02T07:23:09;98360.81;;;3.76;70.18
46756;BME280;32506;52.826;-1.192;2024-03-02T07:25:34;98361.16;;;3.80;70.40
46756;BME280;32506;52.826;-1.192;2024-03-02T07:28:00;98362.53;;;3.82;70.24
46756;BME280;32506;52.826;-1.192;2024-03-02T07:30:25;98360.25;;;3.86;70.48
46756;BME280;32506;52.826;-1.192;2024-03-02T07:32:51;98362.44;;;3.89;70.04
46756;BME280;32506;52.826;-1.192;2024-03-02T07:35:16;98351.47;;;3.92;70.05
46756;BME280;32506;52.826;-1.192;2024-03-02T07:37:43;98356.28;;;3.95;69.90
46756;BME280;32506;52.826;-1.192;2024-03-02T07:40:09;98350.31;;;4.00;70.08
46756;BME280;32506;52.826;-1.192;2024-03-02T07:42:39;98344.59;;;4.03;70.53
46756;BME280;32506;52.826;-1.192;2024-03-02T07:45:05;98351.03;;;4.07;70.41
46756;BME280;32506;52.826;-1.192;2024-03-02T07:47:35;98351.19;;;4.12;70.31
46756;BME280;32506;52.826;-1.192;2024-03-02T07:50:00;98347.06;;;4.16;70.97
46756;BME280;32506;52.826;-1.192;2024-03-02T07:52:26;98345.56;;;4.20;70.98
46756;BME280;32506;52.826;-1.192;2024-03-02T07:54:51;98359.72;;;4.26;71.15
46756;BME280;32506;52.826;-1.192;2024-03-02T07:57:17;98368.03;;;4.30;71.61
46756;BME280;32506;52.826;-1.192;2024-03-02T07:59:42;98366.72;;;4.32;71.56
46756;BME280;32506;52.826;-1.192;2024-03-02T08:02:08;98357.53;;;4.35;71.26
46756;BME280;32506;52.826;-1.192;2024-03-02T08:04:34;98364.22;;;4.37;71.65
46756;BME280;32506;52.826;-1.192;2024-03-02T08:07:00;98361.34;;;4.39;71.52
46756;BME280;32506;52.826;-1.192;2024-03-02T08:09:25;98355.63;;;4.42;71.75
46756;BME280;32506;52.826;-1.192;2024-03-02T08:11:51;98345.38;;;4.46;71.75
46756;BME280;32506;52.826;-1.192;2024-03-02T08:14:16;98347.00;;;4.47;71.64
46756;BME280;32506;52.826;-1.192;2024-03-02T08:16:42;98343.91;;;4.50;72.06
46756;BME280;32506;52.826;-1.192;2024-03-02T08:19:08;98339.97;;;4.52;71.64
46756;BME280;32506;52.826;-1.192;2024-03-02T08:21:34;98343.22;;;4.54;71.84
46756;BME280;32506;52.826;-1.192;2024-03-02T08:24:01;98347.00;;;4.59;72.11
46756;BME280;32506;52.826;-1.192;2024-03-02T08:26:27;98345.53;;;4.63;71.71
46756;BME280;32506;52.826;-1.192;2024-03-02T08:28:55;98346.91;;;4.65;71.82
46756;BME280;32506;52.826;-1.192;2024-03-02T08:31:20;98347.25;;;4.69;71.90
46756;BME280;32506;52.826;-1.192;2024-03-02T08:33:46;98344.16;;;4.72;72.13
46756;BME280;32506;52.826;-1.192;2024-03-02T08:36:12;98349.56;;;4.77;71.70
46756;BME280;32506;52.826;-1.192;2024-03-02T08:38:37;98343.81;;;4.80;71.69
46756;BME280;32506;52.826;-1.192;2024-03-02T08:41:03;98342.53;;;4.83;72.15
46756;BME280;32506;52.826;-1.192;2024-03-02T08:43:29;98347.38;;;4.86;72.38
46756;BME280;32506;52.826;-1.192;2024-03-02T08:45:54;98353.81;;;4.90;72.52
46756;BME280;32506;52.826;-1.192;2024-03-02T08:48:20;98343.56;;;4.94;71.84
46756;BME280;32506;52.826;-1.192;2024-03-02T08:50:48;98350.25;;;4.96;71.82
46756;BME280;32506;52.826;-1.192;2024-03-02T08:53:14;98344.50;;;4.99;71.63
46756;BME280;32506;52.826;-1.192;2024-03-02T08:55:45;98353.81;;;5.02;71.53
46756;BME280;32506;52.826;-1.192;2024-03-02T08:58:10;98335.63;;;5.06;71.86
46756;BME280;32506;52.826;-1.192;2024-03-02T09:00:36;98338.63;;;5.09;71.60
46756;BME280;32506;52.826;-1.192;2024-03-02T09:03:01;98345.06;;;5.13;71.85
46756;BME280;32506;52.826;-1.192;2024-03-02T09:05:27;98350.69;;;5.17;71.86
46756;BME280;32506;52.826;-1.192;2024-03-02T09:07:52;98354.53;;;5.21;71.68
46756;BME280;32506;52.826;-1.192;2024-03-02T09:10:18;98346.88;;;5.25;71.72
46756;BME280;32506;52.826;-1.192;2024-03-02T09:12:43;98347.47;;;5.27;71.61
46756;BME280;32506;52.826;-1.192;2024-03-02T09:15:09;98349.41;;;5.31;71.65
46756;BME280;32506;52.826;-1.192;2024-03-02T09:17:34;98338.34;;;5.34;71.37
46756;BME280;32506;52.826;-1.192;2024-03-02T09:20:00;98349.06;;;5.40;72.03
46756;BME280;32506;52.826;-1.192;2024-03-02T09:22:25;98351.03;;;5.44;71.72
46756;BME280;32506;52.826;-1.192;2024-03-02T09:24:51;98347.41;;;5.50;71.57
46756;BME280;32506;52.826;-1.192;2024-03-02T09:27:16;98343.59;;;5.58;71.75
46756;BME280;32506;52.826;-1.192;2024-03-02T09:29:42;98346.69;;;5.67;71.89
46756;BME280;32506;52.826;-1.192;2024-03-02T09:32:11;98348.97;;;5.75;72.08
46756;BME280;32506;52.826;-1.192;2024-03-02T09:34:37;98345.16;;;5.83;72.31
46756;BME280;32506;52.826;-1.192;2024-03-02T09:37:03;98346.03;;;5.88;72.27
46756;BME280;32506;52.826;-1.192;2024-03-02T09:39:29;98356.50;;;5.95;72.36
46756;BME280;32506;52.826;-1.192;2024-03-02T09:41:55;98347.06;;;5.99;71.68
46756;BME280;32506;52.826;-1.192;2024-03-02T09:44:20;98341.28;;;6.02;71.52
46756;BME280;32506;52.826;-1.192;2024-03-02T09:46:51;98341.38;;;6.08;71.31
46756;BME280;32506;52.826;-1.192;2024-03-02T09:49:16;98343.53;;;6.11;71.27
46756;BME280;32506;52.826;-1.192;2024-03-02T09:51:51;98336.97;;;6.13;71.40
46756;BME280;32506;52.826;-1.192;2024-03-02T09:54:16;98333.84;;;6.16;71.42
46756;BME280;32506;52.826;-1.192;2024-03-02T09:56:42;98331.75;;;6.18;71.50
46756;BME280;32506;52.826;-1.192;2024-03-02T09:59:08;98333.69;;;6.23;71.48
46756;BME280;32506;52.826;-1.192;2024-03-02T10:01:34;98336.41;;;6.28;71.32
46756;BME280;32506;52.826;-1.192;2024-03-02T10:04:00;98326.72;;;6.34;71.45
46756;BME280;32506;52.826;-1.192;2024-03-02T10:06:27;98333.69;;;6.40;71.12
46756;BME280;32506;52.826;-1.192;2024-03-02T10:08:54;98333.78;;;6.45;71.77
46756;BME280;32506;52.826;-1.192;2024-03-02T10:11:34;98329.59;;;6.49;71.39
46756;BME280;32506;52.826;-1.192;2024-03-02T10:14:09;98339.50;;;6.54;71.26
46756;BME280;32506;52.826;-1.192;2024-03-02T10:16:43;98333.47;;;6.59;71.56
46756;BME280;32506;52.826;-1.192;2024-03-02T10:19:24;98337.81;;;6.65;71.57
46756;BME280;32506;52.826;-1.192;2024-03-02T10:21:53;98345.28;;;6.68;71.24
46756;BME280;32506;52.826;-1.192;2024-03-02T10:24:20;98335.81;;;6.72;71.28
46756;BME280;32506;52.826;-1.192;2024-03-02T10:26:46;98332.66;;;6.75;71.13
46756;BME280;32506;52.826;-1.192;2024-03-02T10:29:11;98342.56;;;6.80;70.97
46756;BME280;32506;52.826;-1.192;2024-03-02T10:31:41;98337.53;;;6.83;71.09
46756;BME280;32506;52.826;-1.192;2024-03-02T10:34:10;98342.16;;;6.88;70.85
46756;BME280;32506;52.826;-1.192;2024-03-02T10:36:36;98339.56;;;6.93;71.54
46756;BME280;32506;52.826;-1.192;2024-03-02T10:39:03;98338.31;;;7.01;71.53
46756;BME280;32506;52.826;-1.192;2024-03-02T10:41:32;98340.00;;;7.07;71.52
46756;BME280;32506;52.826;-1.192;2024-03-02T10:43:59;98333.16;;;7.11;71.36
46756;BME280;32506;52.826;-1.192;2024-03-02T10:46:28;98338.88;;;7.20;71.46
46756;BME280;32506;52.826;-1.192;2024-03-02T10:48:55;98345.84;;;7.26;71.45
46756;BME280;32506;52.826;-1.192;2024-03-02T10:51:21;98336.34;;;7.30;71.32
46756;BME280;32506;52.826;-1.192;2024-03-02T10:53:46;98336.66;;;7.34;70.53
46756;BME280;32506;52.826;-1.192;2024-03-02T10:56:16;98347.34;;;7.39;70.38
46756;BME280;32506;52.826;-1.192;2024-03-02T10:58:50;98345.56;;;7.45;70.92
46756;BME280;32506;52.826;-1.192;2024-03-02T11:01:20;98350.94;;;7.50;70.20
46756;BME280;32506;52.826;-1.192;2024-03-02T11:03:47;98347.31;;;7.56;69.58
46756;BME280;32506;52.826;-1.192;2024-03-02T11:06:13;98343.09;;;7.60;69.77
46756;BME280;32506;52.826;-1.192;2024-03-02T11:08:40;98350.31;;;7.65;69.07
46756;BME280;32506;52.826;-1.192;2024-03-02T11:11:07;98349.56;;;7.69;68.61
46756;BME280;32506;52.826;-1.192;2024-03-02T11:13:38;98338.44;;;7.72;68.46
46756;BME280;32506;52.826;-1.192;2024-03-02T11:16:13;98344.63;;;7.78;68.33
46756;BME280;32506;52.826;-1.192;2024-03-02T11:18:41;98352.91;;;7.82;68.59
46756;BME280;32506;52.826;-1.192;2024-03-02T11:21:08;98351.38;;;7.86;68.60
46756;BME280;32506;52.826;-1.192;2024-03-02T11:23:34;98353.81;;;7.93;68.07
46756;BME280;32506;52.826;-1.192;2024-03-02T11:26:20;98357.13;;;8.05;68.85
46756;BME280;32506;52.826;-1.192;2024-03-02T11:28:46;98366.28;;;8.14;68.73
46756;BME280;32506;52.826;-1.192;2024-03-02T11:31:11;98359.72;;;8.22;67.73
46756;BME280;32506;52.826;-1.192;2024-03-02T11:33:37;98362.44;;;8.32;66.72
46756;BME280;32506;52.826;-1.192;2024-03-02T11:36:03;98359.16;;;8.47;67.89
46756;BME280;32506;52.826;-1.192;2024-03-02T11:38:30;98367.81;;;8.65;68.52
46756;BME280;32506;52.826;-1.192;2024-03-02T11:40:56;98362.88;;;8.79;68.52
46756;BME280;32506;52.826;-1.192;2024-03-02T11:43:22;98359.47;;;8.88;67.68
46756;BME280;32506;52.826;-1.192;2024-03-02T11:45:56;98364.59;;;8.95;67.35
46756;BME280;32506;52.826;-1.192;2024-03-02T11:48:22;98353.41;;;8.98;67.65
46756;BME280;32506;52.826;-1.192;2024-03-02T11:50:50;98369.69;;;9.02;67.05
46756;BME280;32506;52.826;-1.192;2024-03-02T11:53:16;98361.19;;;9.05;66.44
46756;BME280;32506;52.826;-1.192;2024-03-02T11:55:42;98365.19;;;9.07;65.33
46756;BME280;32506;52.826;-1.192;2024-03-02T11:58:15;98364.97;;;9.14;65.13
46756;BME280;32506;52.826;-1.192;2024-03-02T12:00:46;98362.09;;;9.26;66.29
46756;BME280;32506;52.826;-1.192;2024-03-02T12:03:13;98364.88;;;9.42;66.76
46756;BME280;32506;52.826;-1.192;2024-03-02T12:05:39;98362.53;;;9.61;67.13
46756;BME280;32506;52.826;-1.192;2024-03-02T12:08:07;98363.16;;;9.83;66.97
46756;BME280;32506;52.826;-1.192;2024-03-02T12:10:34;98361.63;;;10.08;67.37
46756;BME280;32506;52.826;-1.192;2024-03-02T12:13:01;98366.44;;;10.21;66.58
46756;BME280;32506;52.826;-1.192;2024-03-02T12:15:32;98363.81;;;10.32;66.81
46756;BME280;32506;52.826;-1.192;2024-03-02T12:17:59;98364.91;;;10.36;64.72
46756;BME280;32506;52.826;-1.192;2024-03-02T12:20:27;98368.66;;;10.40;65.02
46756;BME280;32506;52.826;-1.192;2024-03-02T12:22:55;98370.78;;;10.43;65.53
46756;BME280;32506;52.826;-1.192;2024-03-02T12:25:21;98371.03;;;10.41;62.13
46756;BME280;32506;52.826;-1.192;2024-03-02T12:27:49;98376.13;;;10.43;60.51
46756;BME280;32506;52.826;-1.192;2024-03-02T12:30:18;98367.31;;;10.48;61.15
46756;BME280;32506;52.826;-1.192;2024-03-02T12:32:45;98368.91;;;10.59;61.41
46756;BME280;32506;52.826;-1.192;2024-03-02T12:35:11;98363.59;;;10.80;62.79
46756;BME280;32506;52.826;-1.192;2024-03-02T12:37:50;98365.41;;;11.05;63.32
46756;BME280;32506;52.826;-1.192;2024-03-02T12:40:17;98366.47;;;11.19;62.89
46756;BME280;32506;52.826;-1.192;2024-03-02T12:42:46;98363.50;;;11.31;60.88
46756;BME280;32506;52.826;-1.192;2024-03-02T12:45:12;98361.31;;;11.44;61.89
46756;BME280;32506;52.826;-1.192;2024-03-02T12:47:40;98368.25;;;11.55;62.34
46756;BME280;32506;52.826;-1.192;2024-03-02T12:50:06;98375.44;;;11.59;61.63
46756;BME280;32506;52.826;-1.192;2024-03-02T12:52:32;98366.34;;;11.61;61.33
46756;BME280;32506;52.826;-1.192;2024-03-02T12:54:59;98369.31;;;11.59;58.99
46756;BME280;32506;52.826;-1.192;2024-03-02T12:57:26;98371.16;;;11.58;58.82
46756;BME280;32506;52.826;-1.192;2024-03-02T13:00:02;98374.38;;;11.55;58.82
46756;BME280;32506;52.826;-1.192;2024-03-02T13:02:43;98373.63;;;11.50;56.25